Weather History for KRZL - February, 2013

Change the Weather History Date:

Tuesday, February 19, 2013

  Actual Average (KVPZ) Record (KVPZ)
Temperature  
Mean Temperature 24 °F 29 °F  
Max Temperature 32 °F 36 °F 46 °F (2002)
Min Temperature 15 °F 21 °F -7 °F (2015)
Degree Days  
Heating Degree Days 42 36  
Month to date heating degree days 737  
Since 1 July heating degree days 4422  
Cooling Degree Days 0 0  
Month to date cooling degree days 0  
Year to date cooling degree days 0  
Moisture  
Dew Point 15 °F    
Average Humidity 80    
Maximum Humidity 93    
Minimum Humidity 73    
Precipitation  
Precipitation 0.00 in 0.06 in 0.66 in (2002)
Month to date precipitation 0.95  
Year to date precipitation 2.70  
Sea Level Pressure  
Sea Level Pressure 29.92 in    
Wind  
Wind Speed 24 mph (West)    
Max Wind Speed 32 mph    
Max Gust Speed 44 mph    
Visibility 8 miles    
Events Snow    
T = Trace of Precipitation, MM = Missing Value Source: NWS Daily Summary

Daily Weather History Graph

Daily Weather History Graph

Search for Another Location

Airport or City:

Trip Planner

Search our weather history database for the weather conditions in past years. The results will help you decide how hot, cold, wet, or windy it might be!

Date:

Astronomy

Feb. 19, 2013 Rise Set
Actual Time 6:37 AM CST 5:28 PM CST
Civil Twilight 6:09 AM CST 5:56 PM CST
Nautical Twilight 5:37 AM CST 6:28 PM CST
Astronomical Twilight 5:05 AM CST 7:00 PM CST
Moon 11:58 AM CST (2/19) 2:10 AM CST (2/19)
Length of Visible Light 11h 47m
Length of Day
10h 51m
Waxing Gibbous, 67% of the Moon is Illuminated
Feb 19
Waxing Gibbous
Feb 25
Full
Mar 4
Last Quarter
Mar 11
New
Mar 19
First Quarter

Hourly Weather History & Observations

Time (CST) Temp. Windchill Dew Point Humidity Pressure Visibility Wind Dir Wind Speed Gust Speed Precip Events Conditions
12:35 AM 32.0 °F 19.2 °F 30.2 °F 93% 29.63 in 10.0 mi WSW 23.0 mph 33.4 mph N/A   Overcast
12:55 AM 30.2 °F 15.4 °F 28.4 °F 93% 29.64 in 10.0 mi WSW 28.8 mph 33.4 mph N/A   Overcast
1:15 AM 30.2 °F 16.2 °F 28.4 °F 93% 29.65 in 10.0 mi West 25.3 mph 33.4 mph N/A   Overcast
1:35 AM 28.4 °F 13.5 °F 26.6 °F 93% 29.66 in 10.0 mi West 26.5 mph 36.8 mph N/A   Overcast
1:55 AM 28.4 °F 16.2 °F 26.6 °F 93% 29.69 in 10.0 mi WSW 17.3 mph 34.5 mph N/A   Overcast
2:15 AM 28.4 °F 13.0 °F 24.8 °F 86% 29.70 in 10.0 mi West 28.8 mph 40.3 mph N/A   Overcast
2:35 AM 26.6 °F 10.6 °F 23.0 °F 86% 29.70 in 10.0 mi WSW 28.8 mph 34.5 mph N/A   Overcast
2:55 AM 26.6 °F 10.8 °F 23.0 °F 86% 29.71 in 10.0 mi WSW 27.6 mph 38.0 mph N/A   Overcast
3:35 AM 23.0 °F 6.9 °F 19.4 °F 86% 29.73 in 10.0 mi WSW 24.2 mph 43.7 mph N/A   Overcast
3:55 AM 23.0 °F 5.7 °F 19.4 °F 86% 29.74 in 10.0 mi WSW 28.8 mph 34.5 mph N/A Snow Light Snow
4:15 AM 23.0 °F 6.6 °F 19.4 °F 86% 29.74 in 10.0 mi WSW 25.3 mph 35.7 mph N/A Snow Light Snow
4:35 AM 23.0 °F 6.6 °F 19.4 °F 86% 29.74 in 10.0 mi WSW 25.3 mph 36.8 mph N/A   Overcast
4:55 AM 23.0 °F 5.1 °F 19.4 °F 86% 29.74 in 10.0 mi WSW 31.1 mph 38.0 mph N/A   Overcast
5:15 AM 23.0 °F 7.6 °F 17.6 °F 80% 29.76 in 10.0 mi WSW 21.9 mph 36.8 mph N/A   Overcast
5:35 AM 23.0 °F 6.9 °F 19.4 °F 86% 29.76 in 10.0 mi WSW 24.2 mph 33.4 mph N/A Snow Light Snow
5:55 AM 21.2 °F 4.9 °F 17.6 °F 86% 29.78 in 7.0 mi West 23.0 mph 34.5 mph N/A Snow Light Snow
6:15 AM 21.2 °F 4.5 °F 17.6 °F 86% 29.78 in 5.0 mi West 24.2 mph 29.9 mph N/A Snow Light Snow
6:35 AM 21.2 °F 6.8 °F 17.6 °F 86% 29.79 in 2.5 mi West 17.3 mph 29.9 mph N/A Snow Light Snow
6:55 AM 21.2 °F 3.9 °F 15.8 °F 80% 29.80 in 10.0 mi West 26.5 mph 36.8 mph N/A Snow Light Snow
7:15 AM 19.4 °F 1.4 °F 14.0 °F 80% 29.80 in 7.0 mi WSW 26.5 mph 35.7 mph N/A Snow Light Snow
7:35 AM 19.4 °F 0.5 °F 14.0 °F 80% 29.82 in 10.0 mi WSW 29.9 mph 38.0 mph N/A Snow Light Snow
7:55 AM 19.4 °F -0.0 °F 12.2 °F 74% 29.83 in 10.0 mi WSW 32.2 mph 38.0 mph N/A   Overcast
8:55 AM 19.4 °F 1.4 °F 14.0 °F 80% 29.85 in 7.0 mi West 26.5 mph 38.0 mph N/A Snow Light Snow
9:15 AM 19.4 °F 1.1 °F 14.0 °F 80% 29.86 in 10.0 mi West 27.6 mph 34.5 mph N/A   Mostly Cloudy
9:35 AM 21.2 °F 5.6 °F 15.8 °F 80% 29.86 in 10.0 mi WSW 20.7 mph 29.9 mph N/A Snow Light Snow
9:55 AM 19.4 °F 2.1 °F 14.0 °F 80% 29.88 in 5.0 mi West 24.2 mph 33.4 mph N/A Snow Light Snow
10:15 AM 19.4 °F 0.5 °F 14.0 °F 80% 29.89 in 7.0 mi WSW 29.9 mph 34.5 mph N/A Snow Light Snow
10:35 AM 17.6 °F -0.6 °F 12.2 °F 79% 29.90 in 7.0 mi WSW 25.3 mph 35.7 mph N/A   Overcast
10:55 AM 19.4 °F 1.4 °F 12.2 °F 74% 29.90 in 10.0 mi West 26.5 mph 34.5 mph N/A   Overcast
11:15 AM 17.6 °F -1.0 °F 12.2 °F 79% 29.91 in 2.5 mi WSW 26.5 mph 33.4 mph N/A Snow Light Snow
11:35 AM 19.4 °F 0.8 °F 12.2 °F 74% 29.91 in 7.0 mi WSW 28.8 mph 35.7 mph N/A   Overcast
11:55 AM 19.4 °F 2.1 °F 12.2 °F 74% 29.91 in 7.0 mi West 24.2 mph 34.5 mph N/A Snow Light Snow
12:15 PM 19.4 °F 2.8 °F 14.0 °F 80% 29.92 in 1.8 mi West 21.9 mph 32.2 mph N/A Snow Light Snow
12:35 PM 17.6 °F 0.1 °F 12.2 °F 79% 29.92 in 7.0 mi WSW 23.0 mph 32.2 mph N/A Snow Light Snow
12:55 PM 17.6 °F -0.3 °F 12.2 °F 79% 29.93 in 4.0 mi West 24.2 mph 35.7 mph N/A Snow Light Snow
1:15 PM 17.6 °F -1.0 °F 12.2 °F 79% 29.94 in 4.0 mi West 26.5 mph 33.4 mph N/A Snow Light Snow
1:35 PM 17.6 °F -1.3 °F 12.2 °F 79% 29.95 in 5.0 mi West 27.6 mph 33.4 mph N/A Snow Light Snow
1:55 PM 17.6 °F -1.3 °F 12.2 °F 79% 29.96 in 3.0 mi West 27.6 mph 33.4 mph N/A Snow Light Snow
2:15 PM 17.6 °F -1.0 °F 12.2 °F 79% 29.96 in 5.0 mi West 26.5 mph 36.8 mph N/A Snow Light Snow
2:35 PM 17.6 °F 1.7 °F 12.2 °F 79% 29.97 in 5.0 mi West 18.4 mph 34.5 mph N/A Snow Light Snow
2:55 PM 17.6 °F 0.1 °F 12.2 °F 79% 29.99 in 7.0 mi West 23.0 mph 32.2 mph N/A   Overcast
3:15 PM 17.6 °F 0.5 °F 12.2 °F 79% 30.00 in 5.0 mi West 21.9 mph 32.2 mph N/A Snow Light Snow
3:35 PM 17.6 °F -0.3 °F 12.2 °F 79% 30.01 in 7.0 mi West 24.2 mph 33.4 mph N/A   Overcast
3:55 PM 19.4 °F 1.8 °F 12.2 °F 74% 30.01 in 7.0 mi West 25.3 mph 35.7 mph N/A Snow Light Snow
4:15 PM 19.4 °F 1.8 °F 12.2 °F 74% 30.02 in 7.0 mi West 25.3 mph 31.1 mph N/A Snow Light Snow
4:35 PM 19.4 °F 2.5 °F 14.0 °F 80% 30.03 in 10.0 mi West 23.0 mph 28.8 mph N/A   Overcast
4:55 PM 19.4 °F 4.1 °F 14.0 °F 80% 30.04 in 10.0 mi West 18.4 mph 31.1 mph N/A Snow Light Snow
5:15 PM 19.4 °F 3.6 °F 14.0 °F 80% 30.04 in 10.0 mi West 19.6 mph 26.5 mph N/A Snow Light Snow
6:35 PM 19.4 °F 3.6 °F 14.0 °F 80% 30.06 in 10.0 mi West 19.6 mph 27.6 mph N/A   Overcast
6:55 PM 21.2 °F 6.0 °F 14.0 °F 74% 30.07 in 10.0 mi West 19.6 mph 25.3 mph N/A   Overcast
7:15 PM 21.2 °F 6.8 °F 14.0 °F 74% 30.08 in 10.0 mi West 17.3 mph 26.5 mph N/A   Overcast
7:35 PM 21.2 °F 5.6 °F 14.0 °F 74% 30.08 in 10.0 mi West 20.7 mph 29.9 mph N/A   Overcast
7:55 PM 21.2 °F 6.4 °F 14.0 °F 74% 30.09 in 10.0 mi West 18.4 mph 29.9 mph N/A   Overcast
8:15 PM 21.2 °F 6.8 °F 14.0 °F 74% 30.09 in 10.0 mi West 17.3 mph 24.2 mph N/A Snow Light Snow
8:35 PM 21.2 °F 6.0 °F 14.0 °F 74% 30.10 in 10.0 mi West 19.6 mph 26.5 mph N/A Snow Light Snow
8:55 PM 19.4 °F 4.5 °F 14.0 °F 80% 30.11 in 3.0 mi West 17.3 mph 32.2 mph N/A Snow Light Snow
9:15 PM 19.4 °F 4.1 °F 12.2 °F 74% 30.12 in 4.0 mi WNW 18.4 mph 25.3 mph N/A Snow Light Snow
9:35 PM 17.6 °F 2.7 °F 12.2 °F 79% 30.13 in 4.0 mi WNW 16.1 mph 24.2 mph N/A Snow Light Snow
9:55 PM 17.6 °F 2.7 °F 10.4 °F 73% 30.14 in 10.0 mi WNW 16.1 mph 24.2 mph N/A   Overcast
10:15 PM 17.6 °F 1.7 °F 10.4 °F 73% 30.14 in 7.0 mi WNW 18.4 mph 24.2 mph N/A Snow Light Snow
10:35 PM 15.8 °F 0.9 °F 10.4 °F 79% 30.14 in 7.0 mi WNW 15.0 mph 24.2 mph N/A Snow Light Snow
10:55 PM 17.6 °F 3.2 °F 10.4 °F 73% 30.15 in 10.0 mi West 15.0 mph 19.6 mph N/A   Mostly Cloudy
11:15 PM 17.6 °F 2.7 °F 10.4 °F 73% 30.16 in 10.0 mi WNW 16.1 mph 19.6 mph N/A Snow Light Snow
11:35 PM 15.8 °F 1.4 °F 10.4 °F 79% 30.16 in 10.0 mi WNW 13.8 mph 20.7 mph N/A   Overcast
11:55 PM 15.8 °F 2.1 °F 10.4 °F 79% 30.16 in 10.0 mi WNW 12.7 mph 19.6 mph N/A   Overcast